sensor_id;sensor_type;location;lat;lon;timestamp;P1;durP1;ratioP1;P2;durP2;ratioP2
26253;SDS011;53339;51.378;0.094;2023-05-07T00:01:08;22.40;;;8.95;;
26253;SDS011;53339;51.378;0.094;2023-05-07T00:04:01;19.52;;;8.23;;
26253;SDS011;53339;51.378;0.094;2023-05-07T00:06:55;21.65;;;8.70;;
26253;SDS011;53339;51.378;0.094;2023-05-07T00:09:39;22.77;;;10.35;;
26253;SDS011;53339;51.378;0.094;2023-05-07T00:12:16;26.98;;;9.07;;
26253;SDS011;53339;51.378;0.094;2023-05-07T00:15:13;30.38;;;10.35;;
26253;SDS011;53339;51.378;0.094;2023-05-07T00:18:31;23.08;;;8.88;;
26253;SDS011;53339;51.378;0.094;2023-05-07T00:21:02;27.27;;;9.95;;
26253;SDS011;53339;51.378;0.094;2023-05-07T00:23:48;27.67;;;10.00;;
26253;SDS011;53339;51.378;0.094;2023-05-07T00:26:31;23.67;;;9.52;;
26253;SDS011;53339;51.378;0.094;2023-05-07T00:29:03;20.77;;;8.98;;
26253;SDS011;53339;51.378;0.094;2023-05-07T00:31:42;22.50;;;10.38;;
26253;SDS011;53339;51.378;0.094;2023-05-07T00:34:21;21.13;;;6.78;;
26253;SDS011;53339;51.378;0.094;2023-05-07T00:36:57;24.02;;;9.50;;
26253;SDS011;53339;51.378;0.094;2023-05-07T00:39:39;28.83;;;10.45;;
26253;SDS011;53339;51.378;0.094;2023-05-07T00:42:25;28.75;;;10.07;;
26253;SDS011;53339;51.378;0.094;2023-05-07T00:45:03;29.42;;;9.77;;
26253;SDS011;53339;51.378;0.094;2023-05-07T00:47:37;28.73;;;9.98;;
26253;SDS011;53339;51.378;0.094;2023-05-07T00:50:23;33.92;;;11.05;;
26253;SDS011;53339;51.378;0.094;2023-05-07T00:53:13;25.75;;;9.30;;
26253;SDS011;53339;51.378;0.094;2023-05-07T00:55:54;24.35;;;9.30;;
26253;SDS011;53339;51.378;0.094;2023-05-07T00:58:38;22.38;;;8.80;;
26253;SDS011;53339;51.378;0.094;2023-05-07T01:03:47;24.85;;;8.45;;
26253;SDS011;53339;51.378;0.094;2023-05-07T01:06:20;22.30;;;7.95;;
26253;SDS011;53339;51.378;0.094;2023-05-07T01:08:54;22.00;;;9.05;;
26253;SDS011;53339;51.378;0.094;2023-05-07T01:11:28;21.52;;;8.18;;
26253;SDS011;53339;51.378;0.094;2023-05-07T01:14:00;23.08;;;7.38;;
26253;SDS011;53339;51.378;0.094;2023-05-07T01:16:33;18.42;;;6.93;;
26253;SDS011;53339;51.378;0.094;2023-05-07T01:19:03;15.60;;;6.50;;
26253;SDS011;53339;51.378;0.094;2023-05-07T01:22:08;18.42;;;7.95;;
26253;SDS011;53339;51.378;0.094;2023-05-07T01:25:17;14.65;;;5.55;;
26253;SDS011;53339;51.378;0.094;2023-05-07T01:28:06;15.02;;;7.28;;
26253;SDS011;53339;51.378;0.094;2023-05-07T01:30:49;14.45;;;6.25;;
26253;SDS011;53339;51.378;0.094;2023-05-07T01:33:25;15.13;;;6.50;;
26253;SDS011;53339;51.378;0.094;2023-05-07T01:36:32;17.05;;;6.82;;
26253;SDS011;53339;51.378;0.094;2023-05-07T01:39:18;16.17;;;5.82;;
26253;SDS011;53339;51.378;0.094;2023-05-07T01:42:03;13.88;;;6.78;;
26253;SDS011;53339;51.378;0.094;2023-05-07T01:44:44;15.38;;;6.35;;
26253;SDS011;53339;51.378;0.094;2023-05-07T01:47:18;15.75;;;6.60;;
26253;SDS011;53339;51.378;0.094;2023-05-07T01:49:52;17.55;;;7.22;;
26253;SDS011;53339;51.378;0.094;2023-05-07T01:52:53;10.10;;;4.90;;
26253;SDS011;53339;51.378;0.094;2023-05-07T01:58:31;12.57;;;5.45;;
26253;SDS011;53339;51.378;0.094;2023-05-07T02:01:03;11.25;;;5.10;;
26253;SDS011;53339;51.378;0.094;2023-05-07T02:03:40;12.93;;;5.63;;
26253;SDS011;53339;51.378;0.094;2023-05-07T02:06:41;12.48;;;5.65;;
26253;SDS011;53339;51.378;0.094;2023-05-07T02:09:35;11.82;;;5.53;;
26253;SDS011;53339;51.378;0.094;2023-05-07T02:12:08;10.65;;;5.28;;
26253;SDS011;53339;51.378;0.094;2023-05-07T02:14:43;13.27;;;5.45;;
26253;SDS011;53339;51.378;0.094;2023-05-07T02:17:14;13.13;;;5.97;;
26253;SDS011;53339;51.378;0.094;2023-05-07T02:19:42;11.80;;;6.35;;
26253;SDS011;53339;51.378;0.094;2023-05-07T02:22:13;12.75;;;5.68;;
26253;SDS011;53339;51.378;0.094;2023-05-07T02:24:49;11.85;;;5.75;;
26253;SDS011;53339;51.378;0.094;2023-05-07T02:27:27;12.88;;;6.40;;
26253;SDS011;53339;51.378;0.094;2023-05-07T02:30:05;12.57;;;7.10;;
26253;SDS011;53339;51.378;0.094;2023-05-07T02:32:38;13.93;;;7.05;;
26253;SDS011;53339;51.378;0.094;2023-05-07T02:37:53;14.63;;;6.60;;
26253;SDS011;53339;51.378;0.094;2023-05-07T02:40:23;12.20;;;6.30;;
26253;SDS011;53339;51.378;0.094;2023-05-07T02:42:51;15.25;;;6.30;;
26253;SDS011;53339;51.378;0.094;2023-05-07T02:48:07;13.93;;;5.88;;
26253;SDS011;53339;51.378;0.094;2023-05-07T02:50:35;13.15;;;6.20;;
26253;SDS011;53339;51.378;0.094;2023-05-07T02:53:04;15.48;;;7.97;;
26253;SDS011;53339;51.378;0.094;2023-05-07T02:55:35;13.40;;;6.85;;
26253;SDS011;53339;51.378;0.094;2023-05-07T02:58:04;16.08;;;7.32;;
26253;SDS011;53339;51.378;0.094;2023-05-07T03:00:35;14.95;;;6.82;;
26253;SDS011;53339;51.378;0.094;2023-05-07T03:03:21;14.93;;;6.85;;
26253;SDS011;53339;51.378;0.094;2023-05-07T03:05:51;17.45;;;7.95;;
26253;SDS011;53339;51.378;0.094;2023-05-07T03:08:34;14.93;;;7.30;;
26253;SDS011;53339;51.378;0.094;2023-05-07T03:11:07;12.70;;;5.60;;
26253;SDS011;53339;51.378;0.094;2023-05-07T03:13:36;13.95;;;6.50;;
26253;SDS011;53339;51.378;0.094;2023-05-07T03:16:11;12.55;;;6.22;;
26253;SDS011;53339;51.378;0.094;2023-05-07T03:18:39;13.48;;;6.93;;
26253;SDS011;53339;51.378;0.094;2023-05-07T03:21:27;14.30;;;6.82;;
26253;SDS011;53339;51.378;0.094;2023-05-07T03:24:09;15.90;;;6.30;;
26253;SDS011;53339;51.378;0.094;2023-05-07T03:26:42;13.25;;;6.38;;
26253;SDS011;53339;51.378;0.094;2023-05-07T03:29:09;14.23;;;6.43;;
26253;SDS011;53339;51.378;0.094;2023-05-07T03:32:02;16.33;;;7.55;;
26253;SDS011;53339;51.378;0.094;2023-05-07T03:34:35;14.98;;;7.90;;
26253;SDS011;53339;51.378;0.094;2023-05-07T03:37:03;14.57;;;7.47;;
26253;SDS011;53339;51.378;0.094;2023-05-07T03:39:36;12.82;;;7.18;;
26253;SDS011;53339;51.378;0.094;2023-05-07T03:42:24;13.95;;;8.00;;
26253;SDS011;53339;51.378;0.094;2023-05-07T03:44:57;14.10;;;7.55;;
26253;SDS011;53339;51.378;0.094;2023-05-07T03:47:27;13.40;;;7.10;;
26253;SDS011;53339;51.378;0.094;2023-05-07T03:49:58;17.90;;;7.15;;
26253;SDS011;53339;51.378;0.094;2023-05-07T03:52:32;14.70;;;7.15;;
26253;SDS011;53339;51.378;0.094;2023-05-07T03:55:04;14.30;;;6.50;;
26253;SDS011;53339;51.378;0.094;2023-05-07T03:57:40;15.43;;;6.88;;
26253;SDS011;53339;51.378;0.094;2023-05-07T04:00:23;15.13;;;7.40;;
26253;SDS011;53339;51.378;0.094;2023-05-07T04:02:51;15.30;;;7.05;;
26253;SDS011;53339;51.378;0.094;2023-05-07T04:05:30;16.83;;;6.95;;
26253;SDS011;53339;51.378;0.094;2023-05-07T04:08:10;16.20;;;6.45;;
26253;SDS011;53339;51.378;0.094;2023-05-07T04:10:41;12.43;;;5.65;;
26253;SDS011;53339;51.378;0.094;2023-05-07T04:13:21;13.63;;;7.65;;
26253;SDS011;53339;51.378;0.094;2023-05-07T04:15:54;14.23;;;6.78;;
26253;SDS011;53339;51.378;0.094;2023-05-07T04:18:24;15.90;;;6.43;;
26253;SDS011;53339;51.378;0.094;2023-05-07T04:20:57;14.55;;;5.88;;
26253;SDS011;53339;51.378;0.094;2023-05-07T04:23:25;13.13;;;6.38;;
26253;SDS011;53339;51.378;0.094;2023-05-07T04:26:09;12.85;;;6.00;;
26253;SDS011;53339;51.378;0.094;2023-05-07T04:28:44;13.50;;;6.68;;
26253;SDS011;53339;51.378;0.094;2023-05-07T04:31:19;11.48;;;6.38;;
26253;SDS011;53339;51.378;0.094;2023-05-07T04:33:55;13.32;;;6.72;;
26253;SDS011;53339;51.378;0.094;2023-05-07T04:36:28;12.85;;;6.50;;
26253;SDS011;53339;51.378;0.094;2023-05-07T04:39:06;12.68;;;6.90;;
26253;SDS011;53339;51.378;0.094;2023-05-07T04:41:37;12.75;;;6.03;;
26253;SDS011;53339;51.378;0.094;2023-05-07T04:44:07;12.63;;;6.47;;
26253;SDS011;53339;51.378;0.094;2023-05-07T04:46:37;14.60;;;6.70;;
26253;SDS011;53339;51.378;0.094;2023-05-07T04:49:08;13.05;;;6.45;;
26253;SDS011;53339;51.378;0.094;2023-05-07T04:51:47;14.65;;;6.53;;
26253;SDS011;53339;51.378;0.094;2023-05-07T04:54:23;15.13;;;7.15;;
26253;SDS011;53339;51.378;0.094;2023-05-07T04:59:28;14.10;;;6.72;;
26253;SDS011;53339;51.378;0.094;2023-05-07T05:02:00;17.33;;;7.60;;
26253;SDS011;53339;51.378;0.094;2023-05-07T05:04:37;15.63;;;6.32;;
26253;SDS011;53339;51.378;0.094;2023-05-07T05:07:05;14.38;;;6.80;;
26253;SDS011;53339;51.378;0.094;2023-05-07T05:09:37;16.02;;;7.35;;
26253;SDS011;53339;51.378;0.094;2023-05-07T05:12:09;17.42;;;7.63;;
26253;SDS011;53339;51.378;0.094;2023-05-07T05:14:44;16.65;;;8.02;;
26253;SDS011;53339;51.378;0.094;2023-05-07T05:17:34;14.68;;;6.70;;
26253;SDS011;53339;51.378;0.094;2023-05-07T05:20:13;18.10;;;7.25;;
26253;SDS011;53339;51.378;0.094;2023-05-07T05:22:45;14.32;;;5.78;;
26253;SDS011;53339;51.378;0.094;2023-05-07T05:25:13;17.17;;;7.72;;
26253;SDS011;53339;51.378;0.094;2023-05-07T05:27:42;17.63;;;9.25;;
26253;SDS011;53339;51.378;0.094;2023-05-07T05:30:10;17.83;;;8.45;;
26253;SDS011;53339;51.378;0.094;2023-05-07T05:32:45;18.00;;;7.10;;
26253;SDS011;53339;51.378;0.094;2023-05-07T05:35:13;18.05;;;8.00;;
26253;SDS011;53339;51.378;0.094;2023-05-07T05:40:21;18.73;;;9.23;;
26253;SDS011;53339;51.378;0.094;2023-05-07T05:42:53;18.08;;;9.43;;
26253;SDS011;53339;51.378;0.094;2023-05-07T05:45:46;19.45;;;8.98;;
26253;SDS011;53339;51.378;0.094;2023-05-07T05:48:14;21.00;;;9.18;;
26253;SDS011;53339;51.378;0.094;2023-05-07T05:50:42;21.20;;;8.38;;
26253;SDS011;53339;51.378;0.094;2023-05-07T05:53:18;16.40;;;7.00;;
26253;SDS011;53339;51.378;0.094;2023-05-07T05:55:49;14.80;;;5.72;;
26253;SDS011;53339;51.378;0.094;2023-05-07T05:58:22;14.65;;;7.15;;
26253;SDS011;53339;51.378;0.094;2023-05-07T06:01:00;17.08;;;7.05;;
26253;SDS011;53339;51.378;0.094;2023-05-07T06:03:40;19.27;;;8.65;;
26253;SDS011;53339;51.378;0.094;2023-05-07T06:06:18;16.92;;;8.13;;
26253;SDS011;53339;51.378;0.094;2023-05-07T06:08:46;18.70;;;6.95;;
26253;SDS011;53339;51.378;0.094;2023-05-07T06:11:30;15.60;;;6.25;;
26253;SDS011;53339;51.378;0.094;2023-05-07T06:14:04;16.90;;;6.15;;
26253;SDS011;53339;51.378;0.094;2023-05-07T06:16:33;17.33;;;6.65;;
26253;SDS011;53339;51.378;0.094;2023-05-07T06:19:12;16.83;;;6.57;;
26253;SDS011;53339;51.378;0.094;2023-05-07T06:21:41;19.20;;;6.90;;
26253;SDS011;53339;51.378;0.094;2023-05-07T06:24:09;16.65;;;6.88;;
26253;SDS011;53339;51.378;0.094;2023-05-07T06:26:39;15.75;;;6.25;;
26253;SDS011;53339;51.378;0.094;2023-05-07T06:29:07;16.00;;;7.28;;
26253;SDS011;53339;51.378;0.094;2023-05-07T06:31:35;18.58;;;7.28;;
26253;SDS011;53339;51.378;0.094;2023-05-07T06:34:07;17.80;;;6.95;;
26253;SDS011;53339;51.378;0.094;2023-05-07T06:36:37;17.80;;;7.03;;
26253;SDS011;53339;51.378;0.094;2023-05-07T06:39:30;20.65;;;8.80;;
26253;SDS011;53339;51.378;0.094;2023-05-07T06:42:00;17.25;;;6.82;;
26253;SDS011;53339;51.378;0.094;2023-05-07T06:44:33;16.13;;;6.53;;
26253;SDS011;53339;51.378;0.094;2023-05-07T06:47:14;15.77;;;6.80;;
26253;SDS011;53339;51.378;0.094;2023-05-07T06:49:47;17.13;;;6.13;;
26253;SDS011;53339;51.378;0.094;2023-05-07T06:52:25;14.32;;;6.13;;
26253;SDS011;53339;51.378;0.094;2023-05-07T06:54:56;18.80;;;5.97;;
26253;SDS011;53339;51.378;0.094;2023-05-07T06:57:31;17.73;;;6.93;;
26253;SDS011;53339;51.378;0.094;2023-05-07T07:00:00;12.40;;;6.07;;
26253;SDS011;53339;51.378;0.094;2023-05-07T07:02:31;15.48;;;5.95;;
26253;SDS011;53339;51.378;0.094;2023-05-07T07:04:59;12.77;;;5.45;;
26253;SDS011;53339;51.378;0.094;2023-05-07T07:07:35;12.07;;;4.93;;
26253;SDS011;53339;51.378;0.094;2023-05-07T07:10:07;18.33;;;6.55;;
26253;SDS011;53339;51.378;0.094;2023-05-07T07:12:36;16.48;;;6.68;;
26253;SDS011;53339;51.378;0.094;2023-05-07T07:15:07;13.43;;;5.95;;
26253;SDS011;53339;51.378;0.094;2023-05-07T07:17:36;13.23;;;5.75;;
26253;SDS011;53339;51.378;0.094;2023-05-07T07:20:12;11.60;;;5.43;;
26253;SDS011;53339;51.378;0.094;2023-05-07T07:23:11;13.82;;;6.00;;
26253;SDS011;53339;51.378;0.094;2023-05-07T07:25:49;15.07;;;6.13;;
26253;SDS011;53339;51.378;0.094;2023-05-07T07:28:27;14.13;;;5.10;;
26253;SDS011;53339;51.378;0.094;2023-05-07T07:30:59;13.30;;;5.00;;
26253;SDS011;53339;51.378;0.094;2023-05-07T07:33:30;14.75;;;5.07;;
26253;SDS011;53339;51.378;0.094;2023-05-07T07:36:04;14.27;;;5.93;;
26253;SDS011;53339;51.378;0.094;2023-05-07T07:38:36;12.98;;;6.18;;
26253;SDS011;53339;51.378;0.094;2023-05-07T07:43:50;14.52;;;6.60;;
26253;SDS011;53339;51.378;0.094;2023-05-07T07:46:23;15.63;;;5.50;;
26253;SDS011;53339;51.378;0.094;2023-05-07T07:49:24;15.35;;;5.78;;
26253;SDS011;53339;51.378;0.094;2023-05-07T07:52:07;14.20;;;5.47;;
26253;SDS011;53339;51.378;0.094;2023-05-07T07:54:42;12.77;;;6.03;;
26253;SDS011;53339;51.378;0.094;2023-05-07T07:57:15;13.77;;;6.13;;
26253;SDS011;53339;51.378;0.094;2023-05-07T07:59:44;11.77;;;5.40;;
26253;SDS011;53339;51.378;0.094;2023-05-07T08:02:15;12.75;;;6.10;;
26253;SDS011;53339;51.378;0.094;2023-05-07T08:04:44;14.63;;;5.90;;
26253;SDS011;53339;51.378;0.094;2023-05-07T08:07:14;10.60;;;4.93;;
26253;SDS011;53339;51.378;0.094;2023-05-07T08:09:51;12.02;;;5.22;;
26253;SDS011;53339;51.378;0.094;2023-05-07T08:12:24;17.95;;;6.55;;
26253;SDS011;53339;51.378;0.094;2023-05-07T08:14:56;12.55;;;6.32;;
26253;SDS011;53339;51.378;0.094;2023-05-07T08:18:02;14.93;;;6.25;;
26253;SDS011;53339;51.378;0.094;2023-05-07T08:20:33;16.75;;;7.05;;
26253;SDS011;53339;51.378;0.094;2023-05-07T08:23:20;11.50;;;5.70;;
26253;SDS011;53339;51.378;0.094;2023-05-07T08:26:07;15.82;;;5.97;;
26253;SDS011;53339;51.378;0.094;2023-05-07T08:28:40;14.77;;;6.57;;
26253;SDS011;53339;51.378;0.094;2023-05-07T08:31:08;16.13;;;6.90;;
26253;SDS011;53339;51.378;0.094;2023-05-07T08:33:45;15.60;;;6.72;;
26253;SDS011;53339;51.378;0.094;2023-05-07T08:36:20;16.25;;;6.65;;
26253;SDS011;53339;51.378;0.094;2023-05-07T08:38:53;14.00;;;6.93;;
26253;SDS011;53339;51.378;0.094;2023-05-07T08:41:32;16.98;;;8.38;;
26253;SDS011;53339;51.378;0.094;2023-05-07T08:44:00;14.38;;;6.32;;
26253;SDS011;53339;51.378;0.094;2023-05-07T08:46:38;17.67;;;6.55;;
26253;SDS011;53339;51.378;0.094;2023-05-07T08:49:17;13.73;;;6.47;;
26253;SDS011;53339;51.378;0.094;2023-05-07T08:51:51;14.77;;;7.13;;
26253;SDS011;53339;51.378;0.094;2023-05-07T08:54:23;16.88;;;8.48;;
26253;SDS011;53339;51.378;0.094;2023-05-07T08:56:54;16.80;;;8.43;;
26253;SDS011;53339;51.378;0.094;2023-05-07T08:59:32;15.50;;;7.32;;
26253;SDS011;53339;51.378;0.094;2023-05-07T09:02:23;19.33;;;8.50;;
26253;SDS011;53339;51.378;0.094;2023-05-07T09:04:55;20.70;;;8.65;;
26253;SDS011;53339;51.378;0.094;2023-05-07T09:07:36;18.63;;;8.50;;
26253;SDS011;53339;51.378;0.094;2023-05-07T09:10:15;15.20;;;6.68;;
26253;SDS011;53339;51.378;0.094;2023-05-07T09:12:50;14.38;;;6.00;;
26253;SDS011;53339;51.378;0.094;2023-05-07T09:15:21;15.95;;;6.57;;
26253;SDS011;53339;51.378;0.094;2023-05-07T09:17:56;13.15;;;5.78;;
26253;SDS011;53339;51.378;0.094;2023-05-07T09:20:51;13.68;;;6.18;;
26253;SDS011;53339;51.378;0.094;2023-05-07T09:23:29;11.50;;;5.43;;
26253;SDS011;53339;51.378;0.094;2023-05-07T09:26:31;11.07;;;6.07;;
26253;SDS011;53339;51.378;0.094;2023-05-07T09:29:09;10.75;;;5.85;;
26253;SDS011;53339;51.378;0.094;2023-05-07T09:31:39;12.70;;;6.05;;
26253;SDS011;53339;51.378;0.094;2023-05-07T09:34:18;10.00;;;4.93;;
26253;SDS011;53339;51.378;0.094;2023-05-07T09:37:05;9.40;;;4.70;;
26253;SDS011;53339;51.378;0.094;2023-05-07T09:39:47;9.27;;;4.15;;
26253;SDS011;53339;51.378;0.094;2023-05-07T09:42:33;9.38;;;4.45;;
26253;SDS011;53339;51.378;0.094;2023-05-07T09:45:28;10.15;;;4.50;;
26253;SDS011;53339;51.378;0.094;2023-05-07T09:48:11;8.30;;;4.05;;
26253;SDS011;53339;51.378;0.094;2023-05-07T09:50:48;7.65;;;4.30;;
26253;SDS011;53339;51.378;0.094;2023-05-07T09:53:41;7.80;;;3.53;;
26253;SDS011;53339;51.378;0.094;2023-05-07T09:56:22;8.20;;;4.43;;
26253;SDS011;53339;51.378;0.094;2023-05-07T09:59:01;8.05;;;3.17;;
26253;SDS011;53339;51.378;0.094;2023-05-07T10:01:36;7.03;;;3.60;;
26253;SDS011;53339;51.378;0.094;2023-05-07T10:04:12;8.07;;;3.45;;
26253;SDS011;53339;51.378;0.094;2023-05-07T10:06:50;7.20;;;2.85;;
26253;SDS011;53339;51.378;0.094;2023-05-07T10:09:20;8.40;;;3.58;;
26253;SDS011;53339;51.378;0.094;2023-05-07T10:11:53;7.70;;;4.10;;
26253;SDS011;53339;51.378;0.094;2023-05-07T10:14:37;8.10;;;4.25;;
26253;SDS011;53339;51.378;0.094;2023-05-07T10:17:08;7.13;;;3.75;;
26253;SDS011;53339;51.378;0.094;2023-05-07T10:22:47;7.00;;;3.28;;
26253;SDS011;53339;51.378;0.094;2023-05-07T10:25:32;6.90;;;4.55;;
26253;SDS011;53339;51.378;0.094;2023-05-07T10:34:32;9.63;;;3.50;;
26253;SDS011;53339;51.378;0.094;2023-05-07T10:37:33;5.57;;;2.75;;
26253;SDS011;53339;51.378;0.094;2023-05-07T10:40:20;7.15;;;3.55;;
26253;SDS011;53339;51.378;0.094;2023-05-07T10:43:39;7.88;;;3.95;;
26253;SDS011;53339;51.378;0.094;2023-05-07T10:46:32;5.80;;;3.40;;
26253;SDS011;53339;51.378;0.094;2023-05-07T10:49:19;5.82;;;3.05;;
26253;SDS011;53339;51.378;0.094;2023-05-07T11:06:20;7.65;;;4.10;;
26253;SDS011;53339;51.378;0.094;2023-05-07T11:09:10;8.00;;;3.72;;
26253;SDS011;53339;51.378;0.094;2023-05-07T11:11:52;7.15;;;3.92;;
26253;SDS011;53339;51.378;0.094;2023-05-07T11:15:02;7.28;;;3.95;;
26253;SDS011;53339;51.378;0.094;2023-05-07T11:18:15;7.07;;;3.72;;
26253;SDS011;53339;51.378;0.094;2023-05-07T11:21:37;10.23;;;3.35;;
26253;SDS011;53339;51.378;0.094;2023-05-07T11:24:47;6.55;;;3.65;;
26253;SDS011;53339;51.378;0.094;2023-05-07T11:27:33;7.47;;;3.70;;
26253;SDS011;53339;51.378;0.094;2023-05-07T11:31:05;6.95;;;3.33;;
26253;SDS011;53339;51.378;0.094;2023-05-07T11:34:10;7.55;;;4.57;;
26253;SDS011;53339;51.378;0.094;2023-05-07T11:36:52;7.10;;;3.72;;
26253;SDS011;53339;51.378;0.094;2023-05-07T11:39:46;6.20;;;3.72;;
26253;SDS011;53339;51.378;0.094;2023-05-07T11:42:33;5.97;;;3.28;;
26253;SDS011;53339;51.378;0.094;2023-05-07T11:45:07;10.40;;;4.40;;
26253;SDS011;53339;51.378;0.094;2023-05-07T11:54:20;5.63;;;3.60;;
26253;SDS011;53339;51.378;0.094;2023-05-07T11:56:59;6.57;;;3.90;;
26253;SDS011;53339;51.378;0.094;2023-05-07T11:59:37;6.60;;;3.95;;
26253;SDS011;53339;51.378;0.094;2023-05-07T12:02:07;7.70;;;3.85;;
26253;SDS011;53339;51.378;0.094;2023-05-07T12:05:20;9.15;;;4.72;;
26253;SDS011;53339;51.378;0.094;2023-05-07T12:07:49;8.73;;;5.10;;
26253;SDS011;53339;51.378;0.094;2023-05-07T12:10:46;10.07;;;4.90;;
26253;SDS011;53339;51.378;0.094;2023-05-07T12:13:27;9.75;;;4.88;;
26253;SDS011;53339;51.378;0.094;2023-05-07T12:16:20;6.95;;;4.80;;
26253;SDS011;53339;51.378;0.094;2023-05-07T12:19:14;10.50;;;4.75;;
26253;SDS011;53339;51.378;0.094;2023-05-07T12:21:54;7.38;;;4.57;;
26253;SDS011;53339;51.378;0.094;2023-05-07T12:24:59;7.68;;;4.50;;
26253;SDS011;53339;51.378;0.094;2023-05-07T12:27:51;9.07;;;5.70;;
26253;SDS011;53339;51.378;0.094;2023-05-07T12:30:51;8.27;;;5.18;;
26253;SDS011;53339;51.378;0.094;2023-05-07T12:33:45;8.90;;;6.07;;
26253;SDS011;53339;51.378;0.094;2023-05-07T12:36:42;7.95;;;5.03;;
26253;SDS011;53339;51.378;0.094;2023-05-07T12:39:30;8.63;;;5.45;;
26253;SDS011;53339;51.378;0.094;2023-05-07T12:42:32;8.52;;;4.68;;
26253;SDS011;53339;51.378;0.094;2023-05-07T12:45:26;6.80;;;4.45;;
26253;SDS011;53339;51.378;0.094;2023-05-07T12:48:15;7.03;;;4.72;;
26253;SDS011;53339;51.378;0.094;2023-05-07T12:51:02;11.07;;;5.63;;
26253;SDS011;53339;51.378;0.094;2023-05-07T12:53:47;7.90;;;4.38;;
26253;SDS011;53339;51.378;0.094;2023-05-07T12:56:40;7.32;;;5.20;;
26253;SDS011;53339;51.378;0.094;2023-05-07T12:59:30;7.70;;;5.13;;
26253;SDS011;53339;51.378;0.094;2023-05-07T13:02:19;9.43;;;5.47;;
26253;SDS011;53339;51.378;0.094;2023-05-07T13:04:54;6.75;;;3.72;;
26253;SDS011;53339;51.378;0.094;2023-05-07T13:07:57;7.85;;;4.97;;
26253;SDS011;53339;51.378;0.094;2023-05-07T13:10:59;8.38;;;5.20;;
26253;SDS011;53339;51.378;0.094;2023-05-07T13:13:40;7.75;;;5.10;;
26253;SDS011;53339;51.378;0.094;2023-05-07T13:16:45;6.90;;;4.45;;
26253;SDS011;53339;51.378;0.094;2023-05-07T13:19:43;8.73;;;5.70;;
26253;SDS011;53339;51.378;0.094;2023-05-07T13:22:37;9.07;;;4.35;;
26253;SDS011;53339;51.378;0.094;2023-05-07T13:25:48;7.75;;;4.43;;
26253;SDS011;53339;51.378;0.094;2023-05-07T13:28:57;8.18;;;4.68;;
26253;SDS011;53339;51.378;0.094;2023-05-07T13:31:56;5.43;;;3.45;;
26253;SDS011;53339;51.378;0.094;2023-05-07T13:34:49;6.22;;;3.63;;
26253;SDS011;53339;51.378;0.094;2023-05-07T13:37:32;5.95;;;3.35;;
26253;SDS011;53339;51.378;0.094;2023-05-07T13:40:24;6.75;;;4.57;;
26253;SDS011;53339;51.378;0.094;2023-05-07T13:43:09;7.15;;;4.65;;
26253;SDS011;53339;51.378;0.094;2023-05-07T13:45:53;6.25;;;4.55;;
26253;SDS011;53339;51.378;0.094;2023-05-07T13:48:47;6.50;;;3.20;;
26253;SDS011;53339;51.378;0.094;2023-05-07T13:51:44;6.63;;;3.97;;
26253;SDS011;53339;51.378;0.094;2023-05-07T13:54:46;5.38;;;3.00;;
26253;SDS011;53339;51.378;0.094;2023-05-07T13:57:59;5.60;;;3.45;;
26253;SDS011;53339;51.378;0.094;2023-05-07T14:00:52;6.45;;;3.10;;
26253;SDS011;53339;51.378;0.094;2023-05-07T14:03:38;5.85;;;2.65;;
26253;SDS011;53339;51.378;0.094;2023-05-07T14:06:44;3.65;;;2.45;;
26253;SDS011;53339;51.378;0.094;2023-05-07T14:10:07;4.75;;;2.10;;
26253;SDS011;53339;51.378;0.094;2023-05-07T14:13:26;4.88;;;2.25;;
26253;SDS011;53339;51.378;0.094;2023-05-07T14:16:26;3.95;;;2.15;;
26253;SDS011;53339;51.378;0.094;2023-05-07T14:19:08;4.40;;;2.35;;
26253;SDS011;53339;51.378;0.094;2023-05-07T14:25:11;4.75;;;2.35;;
26253;SDS011;53339;51.378;0.094;2023-05-07T14:28:14;4.35;;;2.95;;
26253;SDS011;53339;51.378;0.094;2023-05-07T14:31:13;4.82;;;2.88;;
26253;SDS011;53339;51.378;0.094;2023-05-07T14:34:09;3.80;;;2.10;;
26253;SDS011;53339;51.378;0.094;2023-05-07T14:37:07;4.85;;;2.33;;
26253;SDS011;53339;51.378;0.094;2023-05-07T14:39:53;4.05;;;2.30;;
26253;SDS011;53339;51.378;0.094;2023-05-07T14:43:03;3.85;;;1.90;;
26253;SDS011;53339;51.378;0.094;2023-05-07T14:45:43;3.90;;;1.60;;
26253;SDS011;53339;51.378;0.094;2023-05-07T14:48:28;6.03;;;1.85;;
26253;SDS011;53339;51.378;0.094;2023-05-07T14:51:20;4.18;;;1.80;;
26253;SDS011;53339;51.378;0.094;2023-05-07T14:54:00;5.15;;;2.92;;
26253;SDS011;53339;51.378;0.094;2023-05-07T14:56:50;3.53;;;1.83;;
26253;SDS011;53339;51.378;0.094;2023-05-07T15:00:15;3.70;;;1.98;;
26253;SDS011;53339;51.378;0.094;2023-05-07T15:02:59;3.45;;;1.73;;
26253;SDS011;53339;51.378;0.094;2023-05-07T15:06:15;4.53;;;2.00;;
26253;SDS011;53339;51.378;0.094;2023-05-07T15:09:39;3.67;;;1.40;;
26253;SDS011;53339;51.378;0.094;2023-05-07T15:12:36;5.65;;;2.15;;
26253;SDS011;53339;51.378;0.094;2023-05-07T15:15:22;4.13;;;1.65;;
26253;SDS011;53339;51.378;0.094;2023-05-07T15:18:02;3.58;;;1.85;;
26253;SDS011;53339;51.378;0.094;2023-05-07T15:20:43;3.28;;;1.70;;
26253;SDS011;53339;51.378;0.094;2023-05-07T15:23:27;3.08;;;1.60;;
26253;SDS011;53339;51.378;0.094;2023-05-07T15:26:21;3.78;;;1.50;;
26253;SDS011;53339;51.378;0.094;2023-05-07T15:29:24;3.03;;;1.45;;
26253;SDS011;53339;51.378;0.094;2023-05-07T15:32:15;3.88;;;1.75;;
26253;SDS011;53339;51.378;0.094;2023-05-07T15:35:13;3.17;;;1.73;;
26253;SDS011;53339;51.378;0.094;2023-05-07T15:38:02;3.03;;;1.67;;
26253;SDS011;53339;51.378;0.094;2023-05-07T15:41:05;3.58;;;1.38;;
26253;SDS011;53339;51.378;0.094;2023-05-07T15:44:25;3.17;;;1.55;;
26253;SDS011;53339;51.378;0.094;2023-05-07T15:47:29;3.58;;;1.90;;
26253;SDS011;53339;51.378;0.094;2023-05-07T15:50:15;3.60;;;2.30;;
26253;SDS011;53339;51.378;0.094;2023-05-07T15:53:32;4.35;;;1.88;;
26253;SDS011;53339;51.378;0.094;2023-05-07T15:56:32;4.22;;;1.85;;
26253;SDS011;53339;51.378;0.094;2023-05-07T15:59:15;4.13;;;1.67;;
26253;SDS011;53339;51.378;0.094;2023-05-07T16:01:54;3.20;;;1.45;;
26253;SDS011;53339;51.378;0.094;2023-05-07T16:04:47;3.38;;;1.55;;
26253;SDS011;53339;51.378;0.094;2023-05-07T16:07:56;3.60;;;1.55;;
26253;SDS011;53339;51.378;0.094;2023-05-07T16:10:51;3.20;;;1.77;;
26253;SDS011;53339;51.378;0.094;2023-05-07T16:13:33;3.58;;;1.45;;
26253;SDS011;53339;51.378;0.094;2023-05-07T16:16:33;4.45;;;2.00;;
26253;SDS011;53339;51.378;0.094;2023-05-07T16:19:27;3.30;;;2.05;;
26253;SDS011;53339;51.378;0.094;2023-05-07T16:22:09;4.50;;;1.33;;
26253;SDS011;53339;51.378;0.094;2023-05-07T16:25:07;3.65;;;1.73;;
26253;SDS011;53339;51.378;0.094;2023-05-07T16:28:02;3.55;;;1.35;;
26253;SDS011;53339;51.378;0.094;2023-05-07T16:31:27;4.85;;;1.85;;
26253;SDS011;53339;51.378;0.094;2023-05-07T16:37:44;4.57;;;1.33;;
26253;SDS011;53339;51.378;0.094;2023-05-07T16:40:21;3.28;;;1.63;;
26253;SDS011;53339;51.378;0.094;2023-05-07T16:43:23;2.72;;;1.42;;
26253;SDS011;53339;51.378;0.094;2023-05-07T16:46:25;3.40;;;1.60;;
26253;SDS011;53339;51.378;0.094;2023-05-07T16:49:13;3.22;;;2.15;;
26253;SDS011;53339;51.378;0.094;2023-05-07T16:52:16;2.63;;;1.73;;
26253;SDS011;53339;51.378;0.094;2023-05-07T16:55:07;2.00;;;1.17;;
26253;SDS011;53339;51.378;0.094;2023-05-07T16:58:25;3.05;;;2.05;;
26253;SDS011;53339;51.378;0.094;2023-05-07T17:01:07;3.97;;;1.65;;
26253;SDS011;53339;51.378;0.094;2023-05-07T17:04:02;3.15;;;1.55;;
26253;SDS011;53339;51.378;0.094;2023-05-07T17:06:47;3.75;;;1.42;;
26253;SDS011;53339;51.378;0.094;2023-05-07T17:12:40;4.82;;;1.90;;